Terminal Aerodrome Forecast
Issued by NWS Upton, NY

Current Version | Previous Version | Text Only | Print | Product List | Glossary On
Versions: 1 2 3 4 5 6 7 8 9 10 11 12 13 14 15 16 17 18 19 20 21 22 23 24 25 26 27 28 29
902 FTUS41 KOKX 260140 AAA TAFBDR TAF AMD KBDR 260140Z 2602/2624 10005KT P6SM SCT250 FM260300 VRB03KT P6SM SCT250 FM260800 VRB03KT P6SM SCT250 FM261400 14007KT P6SM SCT250 FM262000 17010KT P6SM FEW060 SCT250=

USA.gov is the U.S. government's official web portal to all federal, state and local government web resources and services.